sensor_id;sensor_type;location;lat;lon;timestamp;pressure;altitude;pressure_sealevel;temperature;humidity
38466;BME280;24244;51.950;5.902;2022-07-09T00:02:18;102737.78;;;19.12;71.54
38466;BME280;24244;51.950;5.902;2022-07-09T00:04:43;102735.91;;;19.13;71.62
38466;BME280;24244;51.950;5.902;2022-07-09T00:07:09;102733.41;;;19.11;71.51
38466;BME280;24244;51.950;5.902;2022-07-09T00:09:34;102733.41;;;19.11;71.51
38466;BME280;24244;51.950;5.902;2022-07-09T00:12:00;102739.66;;;19.12;71.47
38466;BME280;24244;51.950;5.902;2022-07-09T00:14:25;102739.03;;;19.10;71.49
38466;BME280;24244;51.950;5.902;2022-07-09T00:16:52;102737.34;;;19.09;71.44
38466;BME280;24244;51.950;5.902;2022-07-09T00:19:18;102741.91;;;19.08;71.59
38466;BME280;24244;51.950;5.902;2022-07-09T00:21:43;102737.72;;;19.06;71.62
38466;BME280;24244;51.950;5.902;2022-07-09T00:24:09;102739.81;;;19.04;71.70
38466;BME280;24244;51.950;5.902;2022-07-09T00:26:34;102736.66;;;19.00;71.96
38466;BME280;24244;51.950;5.902;2022-07-09T00:29:00;102740.78;;;18.96;72.02
38466;BME280;24244;51.950;5.902;2022-07-09T00:31:25;102741.16;;;18.93;72.27
38466;BME280;24244;51.950;5.902;2022-07-09T00:33:53;102741.50;;;18.90;72.35
38466;BME280;24244;51.950;5.902;2022-07-09T00:36:19;102748.34;;;18.86;72.54
38466;BME280;24244;51.950;5.902;2022-07-09T00:38:44;102744.97;;;18.84;72.54
38466;BME280;24244;51.950;5.902;2022-07-09T00:41:10;102740.63;;;18.83;72.68
38466;BME280;24244;51.950;5.902;2022-07-09T00:43:35;102738.31;;;18.80;73.04
38466;BME280;24244;51.950;5.902;2022-07-09T00:46:01;102738.06;;;18.75;72.99
38466;BME280;24244;51.950;5.902;2022-07-09T00:48:26;102740.78;;;18.75;72.94
38466;BME280;24244;51.950;5.902;2022-07-09T00:50:53;102731.84;;;18.74;73.06
38466;BME280;24244;51.950;5.902;2022-07-09T00:53:21;102735.56;;;18.73;73.09
38466;BME280;24244;51.950;5.902;2022-07-09T00:55:48;102725.34;;;18.69;73.14
38466;BME280;24244;51.950;5.902;2022-07-09T00:58:15;102723.72;;;18.68;73.55
38466;BME280;24244;51.950;5.902;2022-07-09T01:00:43;102726.78;;;18.65;73.65
38466;BME280;24244;51.950;5.902;2022-07-09T01:03:09;102720.53;;;18.64;73.77
38466;BME280;24244;51.950;5.902;2022-07-09T01:05:34;102720.28;;;18.59;73.85
38466;BME280;24244;51.950;5.902;2022-07-09T01:08:04;102719.47;;;18.59;73.82
38466;BME280;24244;51.950;5.902;2022-07-09T01:10:30;102714.25;;;18.57;73.97
38466;BME280;24244;51.950;5.902;2022-07-09T01:12:56;102713.78;;;18.54;73.81
38466;BME280;24244;51.950;5.902;2022-07-09T01:15:21;102713.31;;;18.50;73.97
38466;BME280;24244;51.950;5.902;2022-07-09T01:17:47;102709.13;;;18.48;74.28
38466;BME280;24244;51.950;5.902;2022-07-09T01:20:13;102711.03;;;18.47;74.22
38466;BME280;24244;51.950;5.902;2022-07-09T01:22:40;102706.44;;;18.48;74.13
38466;BME280;24244;51.950;5.902;2022-07-09T01:25:07;102702.94;;;18.47;74.00
38466;BME280;24244;51.950;5.902;2022-07-09T01:27:34;102697.75;;;18.46;74.08
38466;BME280;24244;51.950;5.902;2022-07-09T01:30:00;102703.13;;;18.46;74.15
38466;BME280;24244;51.950;5.902;2022-07-09T01:32:25;102694.03;;;18.47;73.94
38466;BME280;24244;51.950;5.902;2022-07-09T01:34:51;102691.72;;;18.44;74.08
38466;BME280;24244;51.950;5.902;2022-07-09T01:37:16;102691.88;;;18.42;73.99
38466;BME280;24244;51.950;5.902;2022-07-09T01:39:43;102685.66;;;18.42;74.17
38466;BME280;24244;51.950;5.902;2022-07-09T01:42:18;102681.31;;;18.40;74.13
38466;BME280;24244;51.950;5.902;2022-07-09T01:44:44;102677.34;;;18.36;74.11
38466;BME280;24244;51.950;5.902;2022-07-09T01:47:10;102672.31;;;18.33;74.37
38466;BME280;24244;51.950;5.902;2022-07-09T01:49:35;102674.41;;;18.31;74.38
38466;BME280;24244;51.950;5.902;2022-07-09T01:52:01;102674.75;;;18.28;74.57
38466;BME280;24244;51.950;5.902;2022-07-09T01:54:26;102675.16;;;18.25;74.59
38466;BME280;24244;51.950;5.902;2022-07-09T01:56:53;102663.75;;;18.23;74.59
38466;BME280;24244;51.950;5.902;2022-07-09T01:59:19;102660.56;;;18.20;74.59
38466;BME280;24244;51.950;5.902;2022-07-09T02:01:44;102658.94;;;18.19;74.60
38466;BME280;24244;51.950;5.902;2022-07-09T02:04:10;102658.47;;;18.15;74.70
38466;BME280;24244;51.950;5.902;2022-07-09T02:06:35;102654.28;;;18.13;74.71
38466;BME280;24244;51.950;5.902;2022-07-09T02:09:01;102660.50;;;18.13;75.04
38466;BME280;24244;51.950;5.902;2022-07-09T02:11:26;102669.34;;;18.07;74.72
38466;BME280;24244;51.950;5.902;2022-07-09T02:13:53;102665.16;;;18.05;75.15
38466;BME280;24244;51.950;5.902;2022-07-09T02:16:18;102670.09;;;18.01;75.00
38466;BME280;24244;51.950;5.902;2022-07-09T02:18:44;102679.19;;;18.00;75.01
38466;BME280;24244;51.950;5.902;2022-07-09T02:21:10;102668.00;;;17.96;75.09
38466;BME280;24244;51.950;5.902;2022-07-09T02:23:35;102666.50;;;17.94;75.22
38466;BME280;24244;51.950;5.902;2022-07-09T02:26:01;102659.25;;;17.94;75.24
38466;BME280;24244;51.950;5.902;2022-07-09T02:28:26;102655.56;;;17.95;75.10
38466;BME280;24244;51.950;5.902;2022-07-09T02:30:53;102657.78;;;17.92;75.16
38466;BME280;24244;51.950;5.902;2022-07-09T02:33:20;102644.88;;;17.87;75.19
38466;BME280;24244;51.950;5.902;2022-07-09T02:35:46;102653.31;;;17.84;75.39
38466;BME280;24244;51.950;5.902;2022-07-09T02:38:12;102651.03;;;17.81;75.44
38466;BME280;24244;51.950;5.902;2022-07-09T02:40:37;102651.38;;;17.78;75.35
38466;BME280;24244;51.950;5.902;2022-07-09T02:43:03;102655.31;;;17.76;75.63
38466;BME280;24244;51.950;5.902;2022-07-09T02:45:28;102655.84;;;17.71;75.59
38466;BME280;24244;51.950;5.902;2022-07-09T02:47:55;102669.03;;;17.66;75.79
38466;BME280;24244;51.950;5.902;2022-07-09T02:50:21;102664.84;;;17.64;75.91
38466;BME280;24244;51.950;5.902;2022-07-09T02:52:46;102664.00;;;17.63;75.94
38466;BME280;24244;51.950;5.902;2022-07-09T02:55:12;102665.88;;;17.63;75.81
38466;BME280;24244;51.950;5.902;2022-07-09T02:57:37;102665.22;;;17.60;75.80
38466;BME280;24244;51.950;5.902;2022-07-09T03:00:04;102671.78;;;17.58;75.96
38466;BME280;24244;51.950;5.902;2022-07-09T03:02:30;102677.72;;;17.53;76.19
38466;BME280;24244;51.950;5.902;2022-07-09T03:04:57;102678.25;;;17.49;76.53
38466;BME280;24244;51.950;5.902;2022-07-09T03:07:23;102675.78;;;17.47;76.77
38466;BME280;24244;51.950;5.902;2022-07-09T03:09:48;102671.41;;;17.46;76.71
38466;BME280;24244;51.950;5.902;2022-07-09T03:12:14;102679.50;;;17.46;76.96
38466;BME280;24244;51.950;5.902;2022-07-09T03:14:39;102672.25;;;17.47;76.91
38466;BME280;24244;51.950;5.902;2022-07-09T03:17:05;102668.72;;;17.46;77.15
38466;BME280;24244;51.950;5.902;2022-07-09T03:19:31;102670.41;;;17.47;77.00
38466;BME280;24244;51.950;5.902;2022-07-09T03:21:58;102670.41;;;17.47;77.08
38466;BME280;24244;51.950;5.902;2022-07-09T03:24:24;102667.72;;;17.47;77.21
38466;BME280;24244;51.950;5.902;2022-07-09T03:26:49;102665.84;;;17.48;77.08
38466;BME280;24244;51.950;5.902;2022-07-09T03:29:15;102675.56;;;17.49;77.27
38466;BME280;24244;51.950;5.902;2022-07-09T03:31:41;102672.72;;;17.50;77.25
38466;BME280;24244;51.950;5.902;2022-07-09T03:34:06;102665.47;;;17.51;77.47
38466;BME280;24244;51.950;5.902;2022-07-09T03:36:32;102664.47;;;17.52;77.01
38466;BME280;24244;51.950;5.902;2022-07-09T03:38:59;102648.97;;;17.54;77.43
38466;BME280;24244;51.950;5.902;2022-07-09T03:41:25;102654.81;;;17.57;77.20
38466;BME280;24244;51.950;5.902;2022-07-09T03:43:50;102659.00;;;17.60;77.16
38466;BME280;24244;51.950;5.902;2022-07-09T03:46:16;102651.75;;;17.60;77.32
38466;BME280;24244;51.950;5.902;2022-07-09T03:48:43;102651.22;;;17.65;77.32
38466;BME280;24244;51.950;5.902;2022-07-09T03:51:08;102654.56;;;17.67;77.09
38466;BME280;24244;51.950;5.902;2022-07-09T03:53:34;102657.06;;;17.69;77.16
38466;BME280;24244;51.950;5.902;2022-07-09T03:56:02;102660.41;;;17.71;76.92
38466;BME280;24244;51.950;5.902;2022-07-09T03:58:28;102662.06;;;17.72;77.03
38466;BME280;24244;51.950;5.902;2022-07-09T04:00:53;102666.25;;;17.74;77.00
38466;BME280;24244;51.950;5.902;2022-07-09T04:03:20;102659.00;;;17.75;77.07
38466;BME280;24244;51.950;5.902;2022-07-09T04:05:47;102661.50;;;17.76;77.19
38466;BME280;24244;51.950;5.902;2022-07-09T04:08:13;102662.34;;;17.77;77.15
38466;BME280;24244;51.950;5.902;2022-07-09T04:10:38;102648.88;;;17.77;77.29
38466;BME280;24244;51.950;5.902;2022-07-09T04:13:05;102655.94;;;17.78;77.90
38466;BME280;24244;51.950;5.902;2022-07-09T04:15:31;102651.56;;;17.77;77.83
38466;BME280;24244;51.950;5.902;2022-07-09T04:17:57;102651.38;;;17.78;77.91
38466;BME280;24244;51.950;5.902;2022-07-09T04:20:23;102653.25;;;17.78;77.92
38466;BME280;24244;51.950;5.902;2022-07-09T04:22:50;102645.81;;;17.80;77.91
38466;BME280;24244;51.950;5.902;2022-07-09T04:25:16;102646.09;;;17.85;77.99
38466;BME280;24244;51.950;5.902;2022-07-09T04:27:42;102645.72;;;17.88;77.96
38466;BME280;24244;51.950;5.902;2022-07-09T04:30:10;102648.84;;;17.91;77.58
38466;BME280;24244;51.950;5.902;2022-07-09T04:32:35;102640.44;;;17.94;77.69
38466;BME280;24244;51.950;5.902;2022-07-09T04:35:01;102645.63;;;17.96;77.82
38466;BME280;24244;51.950;5.902;2022-07-09T04:37:27;102643.38;;;17.99;77.80
38466;BME280;24244;51.950;5.902;2022-07-09T04:39:53;102637.81;;;18.01;77.78
38466;BME280;24244;51.950;5.902;2022-07-09T04:42:18;102641.16;;;18.03;77.80
38466;BME280;24244;51.950;5.902;2022-07-09T04:44:46;102640.13;;;18.04;77.91
38466;BME280;24244;51.950;5.902;2022-07-09T04:47:13;102633.69;;;18.05;77.83
38466;BME280;24244;51.950;5.902;2022-07-09T04:49:38;102639.72;;;18.07;77.75
38466;BME280;24244;51.950;5.902;2022-07-09T04:52:05;102643.09;;;18.09;77.75
38466;BME280;24244;51.950;5.902;2022-07-09T04:54:30;102638.53;;;18.10;77.85
38466;BME280;24244;51.950;5.902;2022-07-09T04:56:56;102628.59;;;18.10;77.62
38466;BME280;24244;51.950;5.902;2022-07-09T04:59:22;102628.38;;;18.12;77.60
38466;BME280;24244;51.950;5.902;2022-07-09T05:01:47;102632.97;;;18.11;77.62
38466;BME280;24244;51.950;5.902;2022-07-09T05:04:17;102632.97;;;18.11;77.72
38466;BME280;24244;51.950;5.902;2022-07-09T05:06:42;102643.53;;;18.13;77.54
38466;BME280;24244;51.950;5.902;2022-07-09T05:09:08;102637.31;;;18.12;77.62
38466;BME280;24244;51.950;5.902;2022-07-09T05:11:33;102636.47;;;18.12;77.72
38466;BME280;24244;51.950;5.902;2022-07-09T05:13:59;102623.47;;;18.15;77.88
38466;BME280;24244;51.950;5.902;2022-07-09T05:16:26;102624.13;;;18.17;77.78
38466;BME280;24244;51.950;5.902;2022-07-09T05:18:51;102622.06;;;18.19;77.74
38466;BME280;24244;51.950;5.902;2022-07-09T05:21:18;102622.06;;;18.19;77.78
38466;BME280;24244;51.950;5.902;2022-07-09T05:23:44;102611.94;;;18.21;77.66
38466;BME280;24244;51.950;5.902;2022-07-09T05:26:09;102620.47;;;18.25;77.74
38466;BME280;24244;51.950;5.902;2022-07-09T05:28:35;102617.56;;;18.26;77.54
38466;BME280;24244;51.950;5.902;2022-07-09T05:31:01;102614.69;;;18.28;77.58
38466;BME280;24244;51.950;5.902;2022-07-09T05:33:26;102623.44;;;18.30;77.42
38466;BME280;24244;51.950;5.902;2022-07-09T05:35:52;102620.91;;;18.28;77.57
38466;BME280;24244;51.950;5.902;2022-07-09T05:38:20;102625.09;;;18.31;77.72
38466;BME280;24244;51.950;5.902;2022-07-09T05:40:46;102624.69;;;18.34;77.60
38466;BME280;24244;51.950;5.902;2022-07-09T05:43:11;102622.66;;;18.36;77.45
38466;BME280;24244;51.950;5.902;2022-07-09T05:45:37;102629.53;;;18.38;77.57
38466;BME280;24244;51.950;5.902;2022-07-09T05:48:03;102631.81;;;18.42;77.72
38466;BME280;24244;51.950;5.902;2022-07-09T05:50:29;102632.84;;;18.40;77.60
38466;BME280;24244;51.950;5.902;2022-07-09T05:52:55;102626.44;;;18.42;77.80
38466;BME280;24244;51.950;5.902;2022-07-09T05:55:22;102628.94;;;18.43;77.92
38466;BME280;24244;51.950;5.902;2022-07-09T05:57:47;102624.00;;;18.47;77.91
38466;BME280;24244;51.950;5.902;2022-07-09T06:00:14;102626.13;;;18.51;77.67
38466;BME280;24244;51.950;5.902;2022-07-09T06:02:39;102628.44;;;18.54;77.46
38466;BME280;24244;51.950;5.902;2022-07-09T06:05:05;102632.44;;;18.58;77.38
38466;BME280;24244;51.950;5.902;2022-07-09T06:07:31;102628.72;;;18.59;77.59
38466;BME280;24244;51.950;5.902;2022-07-09T06:09:56;102628.97;;;18.64;77.49
38466;BME280;24244;51.950;5.902;2022-07-09T06:12:23;102637.50;;;18.68;77.38
38466;BME280;24244;51.950;5.902;2022-07-09T06:14:49;102633.38;;;18.72;77.37
38466;BME280;24244;51.950;5.902;2022-07-09T06:17:14;102628.44;;;18.75;77.01
38466;BME280;24244;51.950;5.902;2022-07-09T06:19:40;102628.88;;;18.79;76.76
38466;BME280;24244;51.950;5.902;2022-07-09T06:22:05;102630.38;;;18.82;76.91
38466;BME280;24244;51.950;5.902;2022-07-09T06:24:31;102624.38;;;18.86;76.76
38466;BME280;24244;51.950;5.902;2022-07-09T06:26:56;102621.91;;;18.91;76.53
38466;BME280;24244;51.950;5.902;2022-07-09T06:29:23;102624.88;;;18.96;76.37
38466;BME280;24244;51.950;5.902;2022-07-09T06:31:49;102624.09;;;19.02;76.29
38466;BME280;24244;51.950;5.902;2022-07-09T06:34:15;102622.66;;;19.06;76.25
38466;BME280;24244;51.950;5.902;2022-07-09T06:36:40;102634.72;;;19.10;76.07
38466;BME280;24244;51.950;5.902;2022-07-09T06:39:09;102628.72;;;19.15;75.98
38466;BME280;24244;51.950;5.902;2022-07-09T06:41:54;102627.50;;;19.17;75.77
38466;BME280;24244;51.950;5.902;2022-07-09T06:44:20;102624.41;;;19.21;75.74
38466;BME280;24244;51.950;5.902;2022-07-09T06:46:48;102621.31;;;19.24;75.73
38466;BME280;24244;51.950;5.902;2022-07-09T06:49:14;102623.59;;;19.27;75.86
38466;BME280;24244;51.950;5.902;2022-07-09T06:51:39;102625.94;;;19.30;75.97
38466;BME280;24244;51.950;5.902;2022-07-09T06:54:05;102629.03;;;19.33;75.85
38466;BME280;24244;51.950;5.902;2022-07-09T06:56:30;102627.63;;;19.37;75.90
38466;BME280;24244;51.950;5.902;2022-07-09T06:58:56;102634.28;;;19.41;76.09
38466;BME280;24244;51.950;5.902;2022-07-09T07:01:21;102625.81;;;19.44;75.86
38466;BME280;24244;51.950;5.902;2022-07-09T07:03:48;102620.03;;;19.47;75.60
38466;BME280;24244;51.950;5.902;2022-07-09T07:06:15;102624.84;;;19.52;75.44
38466;BME280;24244;51.950;5.902;2022-07-09T07:08:40;102626.09;;;19.56;75.19
38466;BME280;24244;51.950;5.902;2022-07-09T07:11:06;102615.75;;;19.60;75.12
38466;BME280;24244;51.950;5.902;2022-07-09T07:13:32;102624.06;;;19.65;75.31
38466;BME280;24244;51.950;5.902;2022-07-09T07:15:57;102620.75;;;19.69;74.74
38466;BME280;24244;51.950;5.902;2022-07-09T07:18:23;102621.19;;;19.73;74.72
38466;BME280;24244;51.950;5.902;2022-07-09T07:20:51;102625.16;;;19.77;74.74
38466;BME280;24244;51.950;5.902;2022-07-09T07:23:16;102621.84;;;19.81;74.57
38466;BME280;24244;51.950;5.902;2022-07-09T07:25:42;102629.16;;;19.87;74.40
38466;BME280;24244;51.950;5.902;2022-07-09T07:28:08;102619.78;;;19.90;74.35
38466;BME280;24244;51.950;5.902;2022-07-09T07:30:36;102616.31;;;19.96;74.12
38466;BME280;24244;51.950;5.902;2022-07-09T07:33:03;102607.78;;;19.99;74.00
38466;BME280;24244;51.950;5.902;2022-07-09T07:35:29;102611.97;;;20.02;73.90
38466;BME280;24244;51.950;5.902;2022-07-09T07:37:56;102608.44;;;20.08;73.50
38466;BME280;24244;51.950;5.902;2022-07-09T07:40:24;102606.38;;;20.10;73.46
38466;BME280;24244;51.950;5.902;2022-07-09T07:42:50;102614.03;;;20.13;73.38
38466;BME280;24244;51.950;5.902;2022-07-09T07:45:16;102606.38;;;20.16;73.25
38466;BME280;24244;51.950;5.902;2022-07-09T07:47:42;102611.38;;;20.19;73.24
38466;BME280;24244;51.950;5.902;2022-07-09T07:50:08;102612.84;;;20.22;73.32
38466;BME280;24244;51.950;5.902;2022-07-09T07:52:34;102612.22;;;20.26;73.05
38466;BME280;24244;51.950;5.902;2022-07-09T07:55:01;102606.22;;;20.31;72.86
38466;BME280;24244;51.950;5.902;2022-07-09T07:57:26;102604.78;;;20.35;72.63
38466;BME280;24244;51.950;5.902;2022-07-09T07:59:52;102601.03;;;20.36;72.61
38466;BME280;24244;51.950;5.902;2022-07-09T08:02:17;102596.28;;;20.38;72.70
38466;BME280;24244;51.950;5.902;2022-07-09T08:04:43;102595.44;;;20.44;72.61
38466;BME280;24244;51.950;5.902;2022-07-09T08:07:09;102585.88;;;20.48;72.58
38466;BME280;24244;51.950;5.902;2022-07-09T08:09:34;102594.41;;;20.52;71.88
38466;BME280;24244;51.950;5.902;2022-07-09T08:12:02;102590.44;;;20.54;71.90
38466;BME280;24244;51.950;5.902;2022-07-09T08:14:28;102582.56;;;20.59;71.49
38466;BME280;24244;51.950;5.902;2022-07-09T08:16:54;102579.44;;;20.62;71.39
38466;BME280;24244;51.950;5.902;2022-07-09T08:19:20;102567.78;;;20.68;71.35
38466;BME280;24244;51.950;5.902;2022-07-09T08:21:46;102568.59;;;20.76;71.34
38466;BME280;24244;51.950;5.902;2022-07-09T08:24:11;102573.19;;;20.82;71.01
38466;BME280;24244;51.950;5.902;2022-07-09T08:26:37;102572.13;;;20.89;70.84
38466;BME280;24244;51.950;5.902;2022-07-09T08:29:05;102562.38;;;20.95;70.70
38466;BME280;24244;51.950;5.902;2022-07-09T08:31:31;102565.25;;;21.00;70.55
38466;BME280;24244;51.950;5.902;2022-07-09T08:33:56;102557.78;;;21.02;70.12
38466;BME280;24244;51.950;5.902;2022-07-09T08:36:23;102559.00;;;21.06;70.03
38466;BME280;24244;51.950;5.902;2022-07-09T08:38:49;102564.19;;;21.14;69.98
38466;BME280;24244;51.950;5.902;2022-07-09T08:41:17;102569.19;;;21.24;69.64
38466;BME280;24244;51.950;5.902;2022-07-09T08:43:49;102564.16;;;21.34;69.25
38466;BME280;24244;51.950;5.902;2022-07-09T08:46:17;102565.38;;;21.44;68.96
38466;BME280;24244;51.950;5.902;2022-07-09T08:48:44;102556.56;;;21.56;68.76
38466;BME280;24244;51.950;5.902;2022-07-09T08:51:10;102555.50;;;21.63;68.76
38466;BME280;24244;51.950;5.902;2022-07-09T08:53:39;102562.75;;;21.69;68.48
38466;BME280;24244;51.950;5.902;2022-07-09T08:56:06;102557.75;;;21.73;68.32
38466;BME280;24244;51.950;5.902;2022-07-09T08:58:32;102571.88;;;21.75;68.48
38466;BME280;24244;51.950;5.902;2022-07-09T09:00:58;102562.91;;;21.74;68.14
38466;BME280;24244;51.950;5.902;2022-07-09T09:03:25;102559.63;;;21.72;68.09
38466;BME280;24244;51.950;5.902;2022-07-09T09:06:02;102562.91;;;21.74;68.56
38466;BME280;24244;51.950;5.902;2022-07-09T09:08:33;102560.84;;;21.76;68.50
38466;BME280;24244;51.950;5.902;2022-07-09T09:10:59;102553.94;;;21.80;68.44
38466;BME280;24244;51.950;5.902;2022-07-09T09:13:25;102555.38;;;21.83;68.26
38466;BME280;24244;51.950;5.902;2022-07-09T09:16:02;102549.53;;;21.86;68.07
38466;BME280;24244;51.950;5.902;2022-07-09T09:18:29;102559.09;;;21.88;68.16
38466;BME280;24244;51.950;5.902;2022-07-09T09:21:02;102561.78;;;21.88;68.05
38466;BME280;24244;51.950;5.902;2022-07-09T09:23:27;102550.97;;;21.88;68.04
38466;BME280;24244;51.950;5.902;2022-07-09T09:25:53;102559.31;;;21.87;67.91
38466;BME280;24244;51.950;5.902;2022-07-09T09:28:19;102557.66;;;21.86;67.92
38466;BME280;24244;51.950;5.902;2022-07-09T09:30:44;102550.16;;;21.88;67.85
38466;BME280;24244;51.950;5.902;2022-07-09T09:33:14;102550.59;;;21.85;67.48
38466;BME280;24244;51.950;5.902;2022-07-09T09:35:44;102551.00;;;21.82;67.07
38466;BME280;24244;51.950;5.902;2022-07-09T09:38:10;102549.59;;;21.79;67.29
38466;BME280;24244;51.950;5.902;2022-07-09T09:40:36;102553.13;;;21.80;67.33
38466;BME280;24244;51.950;5.902;2022-07-09T09:43:05;102544.75;;;21.81;67.37
38466;BME280;24244;51.950;5.902;2022-07-09T09:45:32;102549.97;;;21.83;67.36
38466;BME280;24244;51.950;5.902;2022-07-09T09:48:04;102557.03;;;21.84;67.45
38466;BME280;24244;51.950;5.902;2022-07-09T09:50:32;102560.38;;;21.86;67.18
38466;BME280;24244;51.950;5.902;2022-07-09T09:53:01;102551.63;;;21.84;67.12
38466;BME280;24244;51.950;5.902;2022-07-09T09:55:27;102557.03;;;21.84;67.25
38466;BME280;24244;51.950;5.902;2022-07-09T09:57:54;102560.38;;;21.86;67.16
38466;BME280;24244;51.950;5.902;2022-07-09T10:00:20;102551.41;;;21.85;66.93
38466;BME280;24244;51.950;5.902;2022-07-09T10:02:47;102548.91;;;21.84;67.01
38466;BME280;24244;51.950;5.902;2022-07-09T10:05:13;102550.16;;;21.81;67.23
38466;BME280;24244;51.950;5.902;2022-07-09T10:07:39;102550.41;;;21.80;67.19
38466;BME280;24244;51.950;5.902;2022-07-09T10:10:18;102552.66;;;21.83;67.39
38466;BME280;24244;51.950;5.902;2022-07-09T10:12:44;102557.44;;;21.87;67.66
38466;BME280;24244;51.950;5.902;2022-07-09T10:15:19;102552.63;;;21.89;67.49
38466;BME280;24244;51.950;5.902;2022-07-09T10:17:47;102552.19;;;21.93;67.57
38466;BME280;24244;51.950;5.902;2022-07-09T10:20:13;102552.03;;;21.87;67.42
38466;BME280;24244;51.950;5.902;2022-07-09T10:22:41;102548.13;;;21.77;67.66
38466;BME280;24244;51.950;5.902;2022-07-09T10:25:10;102548.38;;;21.69;66.99
38466;BME280;24244;51.950;5.902;2022-07-09T10:27:42;102562.16;;;21.61;66.79
38466;BME280;24244;51.950;5.902;2022-07-09T10:30:22;102555.31;;;21.58;65.36
38466;BME280;24244;51.950;5.902;2022-07-09T10:33:00;102564.25;;;21.59;64.10
38466;BME280;24244;51.950;5.902;2022-07-09T10:35:27;102548.25;;;21.57;63.18
38466;BME280;24244;51.950;5.902;2022-07-09T10:37:53;102558.19;;;21.63;63.64
38466;BME280;24244;51.950;5.902;2022-07-09T10:40:23;102559.19;;;21.69;62.71
38466;BME280;24244;51.950;5.902;2022-07-09T10:42:57;102564.19;;;21.72;62.78
38466;BME280;24244;51.950;5.902;2022-07-09T10:45:25;102555.00;;;21.79;62.30
38466;BME280;24244;51.950;5.902;2022-07-09T10:47:55;102550.78;;;21.83;62.81
38466;BME280;24244;51.950;5.902;2022-07-09T10:50:21;102548.88;;;21.91;62.71
38466;BME280;24244;51.950;5.902;2022-07-09T10:52:49;102540.75;;;21.97;61.65
38466;BME280;24244;51.950;5.902;2022-07-09T10:55:18;102547.41;;;22.01;61.62
38466;BME280;24244;51.950;5.902;2022-07-09T10:57:48;102545.53;;;22.02;60.95
38466;BME280;24244;51.950;5.902;2022-07-09T11:00:15;102548.22;;;22.02;61.30
38466;BME280;24244;51.950;5.902;2022-07-09T11:02:52;102551.94;;;22.07;60.43
38466;BME280;24244;51.950;5.902;2022-07-09T11:05:18;102546.06;;;22.10;61.06
38466;BME280;24244;51.950;5.902;2022-07-09T11:07:54;102548.50;;;22.18;61.21
38466;BME280;24244;51.950;5.902;2022-07-09T11:10:19;102545.59;;;22.20;60.75
38466;BME280;24244;51.950;5.902;2022-07-09T11:12:54;102546.00;;;22.23;60.77
38466;BME280;24244;51.950;5.902;2022-07-09T11:15:20;102543.50;;;22.22;60.15
38466;BME280;24244;51.950;5.902;2022-07-09T11:17:54;102541.22;;;22.19;59.72
38466;BME280;24244;51.950;5.902;2022-07-09T11:20:20;102552.03;;;22.19;59.39
38466;BME280;24244;51.950;5.902;2022-07-09T11:22:46;102544.97;;;22.18;59.20
38466;BME280;24244;51.950;5.902;2022-07-09T11:25:12;102546.41;;;22.20;59.91
38466;BME280;24244;51.950;5.902;2022-07-09T11:27:39;102539.28;;;22.26;59.96
38466;BME280;24244;51.950;5.902;2022-07-09T11:30:12;102539.84;;;22.35;60.22
38466;BME280;24244;51.950;5.902;2022-07-09T11:32:38;102544.16;;;22.42;59.54
38466;BME280;24244;51.950;5.902;2022-07-09T11:35:04;102550.00;;;22.39;57.26
38466;BME280;24244;51.950;5.902;2022-07-09T11:37:29;102547.13;;;22.34;57.34
38466;BME280;24244;51.950;5.902;2022-07-09T11:39:55;102555.06;;;22.36;57.71
38466;BME280;24244;51.950;5.902;2022-07-09T11:42:21;102547.69;;;22.43;57.82
38466;BME280;24244;51.950;5.902;2022-07-09T11:44:53;102551.56;;;22.53;57.15
38466;BME280;24244;51.950;5.902;2022-07-09T11:47:31;102549.88;;;22.59;56.12
38466;BME280;24244;51.950;5.902;2022-07-09T11:50:05;102549.03;;;22.58;55.61
38466;BME280;24244;51.950;5.902;2022-07-09T11:52:32;102557.75;;;22.60;55.26
38466;BME280;24244;51.950;5.902;2022-07-09T11:54:59;102553.00;;;22.56;55.02
38466;BME280;24244;51.950;5.902;2022-07-09T11:57:26;102548.19;;;22.58;55.55
38466;BME280;24244;51.950;5.902;2022-07-09T11:59:52;102558.97;;;22.64;54.51
38466;BME280;24244;51.950;5.902;2022-07-09T12:02:30;102558.56;;;22.61;53.95
38466;BME280;24244;51.950;5.902;2022-07-09T12:04:56;102554.44;;;22.58;54.38
38466;BME280;24244;51.950;5.902;2022-07-09T12:07:21;102551.13;;;22.56;53.89
38466;BME280;24244;51.950;5.902;2022-07-09T12:09:57;102550.28;;;22.56;54.06
38466;BME280;24244;51.950;5.902;2022-07-09T12:12:23;102553.56;;;22.64;53.55
38466;BME280;24244;51.950;5.902;2022-07-09T12:14:48;102550.78;;;22.71;54.00
38466;BME280;24244;51.950;5.902;2022-07-09T12:17:17;102543.09;;;22.68;53.30
38466;BME280;24244;51.950;5.902;2022-07-09T12:19:45;102554.00;;;22.61;52.55
38466;BME280;24244;51.950;5.902;2022-07-09T12:22:10;102552.38;;;22.54;53.24
38466;BME280;24244;51.950;5.902;2022-07-09T12:24:36;102552.38;;;22.54;52.69
38466;BME280;24244;51.950;5.902;2022-07-09T12:27:03;102556.09;;;22.59;52.35
38466;BME280;24244;51.950;5.902;2022-07-09T12:29:28;102544.38;;;22.65;52.74
38466;BME280;24244;51.950;5.902;2022-07-09T12:31:54;102543.66;;;22.77;51.85
38466;BME280;24244;51.950;5.902;2022-07-09T12:34:20;102546.53;;;22.82;51.73
38466;BME280;24244;51.950;5.902;2022-07-09T12:36:47;102535.47;;;22.83;51.00
38466;BME280;24244;51.950;5.902;2022-07-09T12:39:12;102546.22;;;22.90;51.68
38466;BME280;24244;51.950;5.902;2022-07-09T12:41:38;102552.28;;;22.92;50.59
38466;BME280;24244;51.950;5.902;2022-07-09T12:44:03;102535.78;;;22.93;49.81
38466;BME280;24244;51.950;5.902;2022-07-09T12:46:29;102536.16;;;22.97;49.69
38466;BME280;24244;51.950;5.902;2022-07-09T12:48:55;102532.59;;;22.96;49.58